Time;durP1;ratioP1;P1;durP2;ratioP2;P2;SDS_P1;SDS_P2;PMS_P1;PMS_P2;Temp;Humidity;BMP_temperature;BMP_pressure;BME280_temperature;BME280_humidity;BME280_pressure;Samples;Min_cycle;Max_cycle;Signal;HPM_P1;HPM_P2
2022/11/14 00:01:19;;;;;;;;;;;;;;;14.52;71.63;102669.03;5067613;28;20275;-86
2022/11/14 00:03:48;;;;;;;;;;;;;;;14.51;71.64;102672.47;5066413;28;19931;-86
2022/11/14 00:06:13;;;;;;;;;;;;;;;14.52;71.87;102666.41;5068388;28;20388;-86
2022/11/14 00:08:38;;;;;;;;;;;;;;;14.51;71.78;102676.81;5066746;28;19916;-86
2022/11/14 00:11:04;;;;;;;;;;;;;;;14.48;71.95;102676.59;5060463;28;20341;-84
2022/11/14 00:13:29;;;;;;;;;;;;;;;14.50;71.83;102674.97;5073935;28;19912;-85
2022/11/14 00:15:55;;;;;;;;;;;;;;;14.48;71.82;102671.31;5076373;28;19912;-86
2022/11/14 00:18:20;;;;;;;;;;;;;;;14.49;71.73;102666.19;5076264;28;20308;-86
2022/11/14 00:20:46;;;;;;;;;;;;;;;14.49;71.55;102663.56;5073223;28;19912;-86
2022/11/14 00:23:12;;;;;;;;;;;;;;;14.53;71.39;102662.06;5064655;28;19913;-85
2022/11/14 00:25:37;;;;;;;;;;;;;;;14.51;71.66;102656.69;5073834;28;20049;-86
2022/11/14 00:28:03;;;;;;;;;;;;;;;14.52;71.55;102657.59;5063169;28;20479;-86
2022/11/14 00:30:28;;;;;;;;;;;;;;;14.46;71.61;102645.84;5061370;28;20349;-86
2022/11/14 00:32:54;;;;;;;;;;;;;;;14.50;71.54;102643.44;5076060;28;19933;-86
2022/11/14 00:35:20;;;;;;;;;;;;;;;14.48;71.70;102645.03;5072622;28;19908;-86
2022/11/14 00:37:45;;;;;;;;;;;;;;;14.54;71.43;102648.09;5071664;28;19918;-86
2022/11/14 00:40:13;;;;;;;;;;;;;;;14.54;71.36;102641.13;5074746;28;19920;-86
2022/11/14 00:42:38;;;;;;;;;;;;;;;14.49;71.43;102641.63;5087722;28;19912;-86
2022/11/14 00:45:04;;;;;;;;;;;;;;;14.48;71.53;102642.41;5071297;28;20003;-86
2022/11/14 00:47:29;;;;;;;;;;;;;;;14.45;71.66;102640.50;5072586;28;19912;-85
2022/11/14 00:49:55;;;;;;;;;;;;;;;14.50;71.68;102638.16;5075301;28;19916;-86
2022/11/14 00:52:20;;;;;;;;;;;;;;;14.49;71.51;102639.91;5075855;28;19970;-86
2022/11/14 00:54:46;;;;;;;;;;;;;;;14.45;71.67;102629.97;5073228;28;19916;-86
2022/11/14 00:57:11;;;;;;;;;;;;;;;14.42;71.68;102633.31;5065289;28;20366;-86
2022/11/14 00:59:36;;;;;;;;;;;;;;;14.44;71.57;102630.81;5069448;28;20389;-86
2022/11/14 01:02:02;;;;;;;;;;;;;;;14.45;71.54;102630.88;5072482;28;20393;-86
2022/11/14 01:04:27;;;;;;;;;;;;;;;14.46;71.47;102624.81;5071388;28;20365;-87
2022/11/14 01:06:53;;;;;;;;;;;;;;;14.53;71.28;102630.50;5071702;28;19916;-86
2022/11/14 01:09:18;;;;;;;;;;;;;;;14.50;71.40;102617.13;5072987;28;20356;-86
2022/11/14 01:11:43;;;;;;;;;;;;;;;14.40;71.64;102631.38;5059668;28;19916;-86
2022/11/14 01:14:09;;;;;;;;;;;;;;;14.44;71.50;102615.03;5065198;28;20006;-85
2022/11/14 01:16:34;;;;;;;;;;;;;;;14.48;71.45;102613.50;5059257;28;19913;-85
2022/11/14 01:19:00;;;;;;;;;;;;;;;14.47;71.40;102615.22;5081074;28;19913;-86
2022/11/14 01:21:26;;;;;;;;;;;;;;;14.42;71.52;102611.38;5069537;28;19913;-86
2022/11/14 01:23:51;;;;;;;;;;;;;;;14.42;71.35;102616.63;5068807;28;19913;-86
2022/11/14 01:26:17;;;;;;;;;;;;;;;14.50;71.33;102606.63;5059755;28;20352;-85
2022/11/14 01:28:42;;;;;;;;;;;;;;;14.50;71.21;102607.56;5053012;28;19970;-85
2022/11/14 01:31:12;;;;;;;;;;;;;;;14.53;71.20;102612.09;5062408;28;20346;-86
2022/11/14 01:33:37;;;;;;;;;;;;;;;14.50;71.10;102602.28;5056495;28;19924;-86
2022/11/14 01:36:03;;;;;;;;;;;;;;;14.48;71.13;102601.28;5080557;28;19912;-87
2022/11/14 01:38:29;;;;;;;;;;;;;;;14.49;71.24;102597.84;5075846;28;20378;-86
2022/11/14 01:40:54;;;;;;;;;;;;;;;14.45;71.40;102588.81;5074394;28;19919;-87
2022/11/14 01:43:23;;;;;;;;;;;;;;;14.48;71.07;102596.03;5075948;28;20305;-85
2022/11/14 01:45:50;;;;;;;;;;;;;;;14.49;71.12;102596.94;5067154;28;19912;-86
2022/11/14 01:48:27;;;;;;;;;;;;;;;14.44;71.34;102594.00;5070684;28;20446;-86
2022/11/14 01:51:19;;;;;;;;;;;;;;;14.51;71.21;102590.06;5062027;28;19912;-86
2022/11/14 01:53:45;;;;;;;;;;;;;;;14.42;71.17;102590.34;5061794;28;19924;-86
2022/11/14 01:56:11;;;;;;;;;;;;;;;14.39;71.55;102595.38;5070295;28;19921;-86
2022/11/14 01:58:38;;;;;;;;;;;;;;;14.45;71.24;102585.28;5065453;28;19955;-86
2022/11/14 02:01:03;;;;;;;;;;;;;;;14.45;71.16;102588.81;5064317;28;19921;-85
2022/11/14 02:03:28;;;;;;;;;;;;;;;14.44;71.24;102591.38;5085455;28;19916;-86
2022/11/14 02:05:54;;;;;;;;;;;;;;;14.44;71.15;102588.72;5070325;28;19912;-86
2022/11/14 02:08:19;;;;;;;;;;;;;;;14.44;71.05;102594.00;5053244;28;19912;-85
2022/11/14 02:10:44;;;;;;;;;;;;;;;14.45;71.14;102593.16;5071823;28;20385;-84
2022/11/14 02:13:10;;;;;;;;;;;;;;;14.43;71.05;102590.47;5071635;28;19912;-84
2022/11/14 02:15:35;;;;;;;;;;;;;;;14.43;71.09;102584.28;5071362;28;20300;-85
2022/11/14 02:18:01;;;;;;;;;;;;;;;14.46;70.96;102588.03;5069600;28;19914;-85
2022/11/14 02:20:31;;;;;;;;;;;;;;;14.44;70.88;102587.00;5060309;28;20476;-86
2022/11/14 02:22:56;;;;;;;;;;;;;;;14.43;70.86;102579.94;5070724;28;19908;-86
2022/11/14 02:25:22;;;;;;;;;;;;;;;14.43;70.90;102587.84;5074425;28;19941;-86
2022/11/14 02:27:47;;;;;;;;;;;;;;;14.43;70.99;102597.41;5066751;28;20325;-86
2022/11/14 02:30:20;;;;;;;;;;;;;;;14.38;71.13;102586.59;5068588;28;19908;-86
2022/11/14 02:32:45;;;;;;;;;;;;;;;14.43;70.88;102598.34;5061810;28;20309;-86
2022/11/14 02:35:11;;;;;;;;;;;;;;;14.39;70.93;102590.13;5062202;28;19913;-86
2022/11/14 02:37:37;;;;;;;;;;;;;;;14.35;71.09;102589.03;5075032;28;20353;-86
2022/11/14 02:40:02;;;;;;;;;;;;;;;14.38;71.07;102593.56;5079364;28;19919;-86
2022/11/14 02:42:28;;;;;;;;;;;;;;;14.40;70.88;102597.22;5066013;28;19916;-86
2022/11/14 02:44:53;;;;;;;;;;;;;;;14.43;71.03;102589.53;5076666;28;19923;-86
2022/11/14 02:47:19;;;;;;;;;;;;;;;14.33;71.17;102585.38;5083114;28;19912;-86
2022/11/14 02:49:44;;;;;;;;;;;;;;;14.34;71.18;102587.19;5077701;28;19960;-87
2022/11/14 02:52:09;;;;;;;;;;;;;;;14.41;70.75;102592.06;5067194;28;19970;-87
2022/11/14 02:54:35;;;;;;;;;;;;;;;14.43;70.80;102594.78;5078216;28;20400;-87
2022/11/14 02:57:00;;;;;;;;;;;;;;;14.35;71.01;102594.28;5077943;28;20389;-86
2022/11/14 02:59:26;;;;;;;;;;;;;;;14.40;70.84;102594.59;5079012;28;19916;-86
2022/11/14 03:01:51;;;;;;;;;;;;;;;14.34;70.91;102596.81;5075641;28;20381;-86
2022/11/14 03:04:16;;;;;;;;;;;;;;;14.36;70.85;102589.94;5074339;28;20393;-86
2022/11/14 03:06:42;;;;;;;;;;;;;;;14.33;70.96;102598.53;5076213;28;20403;-86
2022/11/14 03:09:07;;;;;;;;;;;;;;;14.28;71.17;102596.38;5070648;28;19920;-86
2022/11/14 03:11:33;;;;;;;;;;;;;;;14.29;71.03;102590.31;5091825;28;20278;-86
2022/11/14 03:13:58;;;;;;;;;;;;;;;14.34;70.94;102592.44;5079846;28;20412;-87
2022/11/14 03:16:24;;;;;;;;;;;;;;;14.37;70.67;102587.41;5085126;28;20374;-86
2022/11/14 03:18:49;;;;;;;;;;;;;;;14.32;70.96;102588.81;5078079;28;19912;-86
2022/11/14 03:21:16;;;;;;;;;;;;;;;14.29;70.90;102587.69;5067428;28;20422;-86
2022/11/14 03:23:41;;;;;;;;;;;;;;;14.36;70.82;102592.56;5086840;28;20003;-86
2022/11/14 03:26:07;;;;;;;;;;;;;;;14.30;70.85;102586.88;5067310;28;20051;-86
2022/11/14 03:28:33;;;;;;;;;;;;;;;14.22;71.22;102583.72;5081455;28;19912;-85
2022/11/14 03:30:58;;;;;;;;;;;;;;;14.27;70.85;102582.34;5082223;28;19982;-86
2022/11/14 03:33:24;;;;;;;;;;;;;;;14.31;70.68;102581.75;5072452;28;19917;-84
2022/11/14 03:35:50;;;;;;;;;;;;;;;14.32;70.61;102578.28;5062636;28;20460;-85
2022/11/14 03:38:15;;;;;;;;;;;;;;;14.34;70.51;102583.66;5079126;28;19912;-85
2022/11/14 03:40:41;;;;;;;;;;;;;;;14.28;70.74;102577.97;5059383;28;20371;-85
2022/11/14 03:43:06;;;;;;;;;;;;;;;14.31;70.66;102589.63;5086022;28;19938;-86
2022/11/14 03:45:32;;;;;;;;;;;;;;;14.28;70.64;102581.50;5066930;28;19969;-85
2022/11/14 03:47:57;;;;;;;;;;;;;;;14.27;70.67;102582.34;5055462;28;20387;-87
2022/11/14 03:50:24;;;;;;;;;;;;;;;14.25;70.76;102587.47;5073344;28;20449;-86
2022/11/14 03:52:49;;;;;;;;;;;;;;;14.24;70.91;102585.69;5085688;28;20309;-87
2022/11/14 03:55:15;;;;;;;;;;;;;;;14.20;70.89;102585.34;5075223;28;20374;-86
2022/11/14 03:57:40;;;;;;;;;;;;;;;14.25;70.70;102591.84;5068562;28;19985;-87
2022/11/14 04:00:06;;;;;;;;;;;;;;;14.27;70.65;102584.06;5065196;28;19916;-86
2022/11/14 04:02:31;;;;;;;;;;;;;;;14.27;70.60;102584.06;5085040;28;20415;-86
2022/11/14 04:04:56;;;;;;;;;;;;;;;14.17;70.79;102586.03;5074783;28;19919;-84
2022/11/14 04:07:22;;;;;;;;;;;;;;;14.19;70.80;102589.69;5070866;28;20358;-85
2022/11/14 04:09:47;;;;;;;;;;;;;;;14.14;70.89;102590.16;5073634;28;19942;-85
2022/11/14 04:12:13;;;;;;;;;;;;;;;14.22;70.71;102589.91;5077233;28;19916;-85
2022/11/14 04:14:42;;;;;;;;;;;;;;;14.10;70.49;102562.78;5072385;28;19908;-84
2022/11/14 04:17:08;;;;;;;;;;;;;;;14.15;70.50;102586.75;5065346;28;19912;-86
2022/11/14 04:19:33;;;;;;;;;;;;;;;14.14;70.54;102588.47;5057899;28;20380;-85
2022/11/14 04:21:58;;;;;;;;;;;;;;;14.12;70.76;102590.09;5075180;28;19955;-86
2022/11/14 04:24:24;;;;;;;;;;;;;;;14.15;70.45;102590.28;5080406;28;19965;-88
2022/11/14 04:26:50;;;;;;;;;;;;;;;14.19;70.38;102596.66;5064458;28;19984;-86
2022/11/14 04:29:15;;;;;;;;;;;;;;;14.15;70.27;102598.16;5068248;28;20655;-85
2022/11/14 04:31:40;;;;;;;;;;;;;;;14.12;70.40;102595.34;5071151;28;20371;-86
2022/11/14 04:34:06;;;;;;;;;;;;;;;14.13;70.40;102598.88;5053093;28;19920;-86
2022/11/14 04:36:31;;;;;;;;;;;;;;;14.14;70.35;102598.03;5070415;28;20377;-86
2022/11/14 04:38:57;;;;;;;;;;;;;;;14.17;70.30;102599.19;5068850;28;20385;-87
2022/11/14 04:41:22;;;;;;;;;;;;;;;14.10;70.39;102603.94;5068999;28;19912;-86
2022/11/14 04:43:47;;;;;;;;;;;;;;;14.14;70.31;102601.63;5073282;28;20340;-87
2022/11/14 04:46:13;;;;;;;;;;;;;;;14.11;70.35;102603.09;5071251;28;19974;-86
2022/11/14 04:48:38;;;;;;;;;;;;;;;14.16;69.98;102602.63;5073068;28;20366;-87
2022/11/14 04:51:04;;;;;;;;;;;;;;;14.11;70.18;102601.38;5073138;28;20349;-86
2022/11/14 04:53:29;;;;;;;;;;;;;;;14.10;70.30;102603.94;5088586;28;20293;-86
2022/11/14 04:55:55;;;;;;;;;;;;;;;14.07;70.52;102601.97;5071188;28;19954;-86
2022/11/14 04:58:20;;;;;;;;;;;;;;;14.08;70.37;102597.66;5071781;28;20369;-86
2022/11/14 05:00:45;;;;;;;;;;;;;;;14.07;70.38;102604.59;5071421;28;20483;-86
2022/11/14 05:03:11;;;;;;;;;;;;;;;14.10;70.45;102606.56;5054301;28;20300;-87
2022/11/14 05:05:36;;;;;;;;;;;;;;;14.09;70.58;102600.38;5071418;28;20288;-86
2022/11/14 05:08:02;;;;;;;;;;;;;;;14.08;70.42;102603.81;5072597;28;20496;-86
2022/11/14 05:10:27;;;;;;;;;;;;;;;14.09;70.45;102604.72;5014023;28;19925;-86
2022/11/14 05:12:53;;;;;;;;;;;;;;;14.07;70.31;102608.94;5023185;28;20337;-86
2022/11/14 05:15:18;;;;;;;;;;;;;;;14.05;70.32;102604.53;5032633;28;19908;-87
2022/11/14 05:17:44;;;;;;;;;;;;;;;14.03;70.62;102614.00;5025587;28;19917;-86
2022/11/14 05:20:09;;;;;;;;;;;;;;;14.10;70.22;102601.31;5025354;28;19913;-86
2022/11/14 05:22:35;;;;;;;;;;;;;;;14.08;70.43;102605.53;5031049;28;20309;-87
2022/11/14 05:25:00;;;;;;;;;;;;;;;14.09;70.26;102609.97;5018818;28;19913;-86
2022/11/14 05:27:26;;;;;;;;;;;;;;;14.13;70.22;102609.38;5015124;28;19913;-84
2022/11/14 05:29:51;;;;;;;;;;;;;;;14.10;70.17;102615.34;5013254;28;20287;-84
2022/11/14 05:32:16;;;;;;;;;;;;;;;14.07;70.20;102614.22;5026861;28;19917;-84
2022/11/14 05:34:42;;;;;;;;;;;;;;;14.08;70.17;102605.53;5029475;28;19971;-85
2022/11/14 05:37:07;;;;;;;;;;;;;;;14.07;70.14;102612.47;5029221;28;20397;-85
2022/11/14 05:39:33;;;;;;;;;;;;;;;14.11;70.23;102608.34;5014428;28;20383;-85
2022/11/14 05:41:58;;;;;;;;;;;;;;;14.03;70.30;102607.81;5025287;28;19913;-87
2022/11/14 05:44:24;;;;;;;;;;;;;;;14.03;70.26;102615.69;5026002;28;20015;-86
2022/11/14 05:46:49;;;;;;;;;;;;;;;14.11;70.09;102616.25;5031923;28;20386;-87
2022/11/14 05:49:14;;;;;;;;;;;;;;;14.08;70.29;102610.78;5031925;28;19924;-87
2022/11/14 05:51:40;;;;;;;;;;;;;;;14.10;70.18;102612.72;5031586;28;19931;-87
2022/11/14 05:54:05;;;;;;;;;;;;;;;14.07;70.33;102614.22;5024124;28;20311;-86
2022/11/14 05:56:31;;;;;;;;;;;;;;;14.03;70.40;102613.06;5015451;28;20398;-86
2022/11/14 05:58:56;;;;;;;;;;;;;;;14.08;70.21;102613.41;5011412;28;19917;-86
2022/11/14 06:01:21;;;;;;;;;;;;;;;14.05;70.04;102611.47;5014044;28;20379;-87
2022/11/14 06:03:47;;;;;;;;;;;;;;;14.09;70.15;102615.22;5000572;28;19913;-87
2022/11/14 06:06:14;;;;;;;;;;;;;;;14.06;70.12;102610.69;5012864;28;20367;-86
2022/11/14 06:08:39;;;;;;;;;;;;;;;14.11;70.09;102614.53;5038718;28;19916;-87
2022/11/14 06:11:05;;;;;;;;;;;;;;;14.04;70.22;102620.16;5050107;28;19931;-87
2022/11/14 06:13:31;;;;;;;;;;;;;;;14.06;70.08;102615.94;5070076;28;19916;-86
2022/11/14 06:16:00;;;;;;;;;;;;;;;14.03;70.16;102615.69;5058287;28;19962;-85
2022/11/14 06:18:26;;;;;;;;;;;;;;;14.08;70.00;102622.19;5074652;28;20368;-85
2022/11/14 06:20:51;;;;;;;;;;;;;;;14.04;70.25;102617.53;5067150;28;20008;-85
2022/11/14 06:23:17;;;;;;;;;;;;;;;14.05;70.20;102628.16;5052278;28;19908;-84
2022/11/14 06:25:42;;;;;;;;;;;;;;;14.01;70.03;102617.31;5055891;28;20332;-86
2022/11/14 06:28:08;;;;;;;;;;;;;;;14.07;70.04;102622.09;5062061;28;20382;-84
2022/11/14 06:30:33;;;;;;;;;;;;;;;13.98;70.33;102622.34;5053178;28;20401;-84
2022/11/14 06:32:58;;;;;;;;;;;;;;;14.01;70.40;102618.25;5066610;28;19924;-85
2022/11/14 06:35:24;;;;;;;;;;;;;;;14.00;70.33;102619.03;5057517;28;20017;-85
2022/11/14 06:37:50;;;;;;;;;;;;;;;14.00;70.31;102624.28;5066830;28;19915;-84
2022/11/14 06:40:15;;;;;;;;;;;;;;;13.95;70.55;102617.81;5059540;28;19908;-84
2022/11/14 06:42:41;;;;;;;;;;;;;;;14.00;70.36;102621.66;5070983;28;19916;-86
2022/11/14 06:45:06;;;;;;;;;;;;;;;14.00;70.49;102623.38;5070543;28;20278;-85
2022/11/14 06:47:32;;;;;;;;;;;;;;;13.96;70.53;102619.63;5078764;28;19912;-85
2022/11/14 06:49:57;;;;;;;;;;;;;;;14.02;70.36;102624.41;5083369;28;20003;-85
2022/11/14 06:52:24;;;;;;;;;;;;;;;14.04;70.22;102630.69;5069937;28;20382;-85
2022/11/14 06:54:50;;;;;;;;;;;;;;;14.01;70.40;102619.94;5068731;28;19915;-86
2022/11/14 06:57:15;;;;;;;;;;;;;;;13.95;70.66;102619.50;5069160;28;19912;-85
2022/11/14 06:59:40;;;;;;;;;;;;;;;13.97;70.36;102621.47;5061722;28;20439;-86
2022/11/14 07:02:09;;;;;;;;;;;;;;;13.95;70.62;102623.06;5056227;28;20314;-85
2022/11/14 07:04:35;;;;;;;;;;;;;;;13.95;70.64;102625.69;5069783;28;19912;-85
2022/11/14 07:07:00;;;;;;;;;;;;;;;14.00;70.49;102624.28;5056694;28;20015;-85
2022/11/14 07:09:25;;;;;;;;;;;;;;;14.03;70.38;102631.47;5057083;28;20371;-87
2022/11/14 07:11:51;;;;;;;;;;;;;;;13.99;70.42;102632.03;5062791;28;19916;-86
2022/11/14 07:14:16;;;;;;;;;;;;;;;13.99;70.56;102633.00;5059545;28;20309;-86
2022/11/14 07:16:42;;;;;;;;;;;;;;;13.96;70.65;102626.59;5069643;28;20385;-85
2022/11/14 07:19:11;;;;;;;;;;;;;;;13.96;70.49;102627.50;5068308;28;20392;-84
2022/11/14 07:21:36;;;;;;;;;;;;;;;13.86;70.97;102627.66;5070028;28;20389;-85
2022/11/14 07:24:02;;;;;;;;;;;;;;;13.91;70.91;102626.28;5067219;28;19916;-86
2022/11/14 07:26:27;;;;;;;;;;;;;;;13.94;70.62;102625.56;5063842;28;19912;-85
2022/11/14 07:28:52;;;;;;;;;;;;;;;13.93;70.72;102637.81;5071391;28;19916;-85
2022/11/14 07:31:19;;;;;;;;;;;;;;;13.90;70.93;102634.03;5071658;28;19912;-85
2022/11/14 07:33:45;;;;;;;;;;;;;;;13.89;71.03;102634.88;5072641;28;20380;-86
2022/11/14 07:36:10;;;;;;;;;;;;;;;13.93;70.61;102636.91;5072598;28;20390;-85
2022/11/14 07:38:36;;;;;;;;;;;;;;;13.92;70.82;102632.44;5071915;28;19999;-84
2022/11/14 07:41:09;;;;;;;;;;;;;;;13.92;71.02;102632.44;5074329;28;20002;-86
2022/11/14 07:43:34;;;;;;;;;;;;;;;13.92;70.87;102624.56;5053360;28;19908;-85
2022/11/14 07:46:06;;;;;;;;;;;;;;;13.92;70.91;102624.56;5073422;28;20439;-85
2022/11/14 07:48:32;;;;;;;;;;;;;;;13.90;70.86;102619.19;5067619;28;19909;-85
2022/11/14 07:50:59;;;;;;;;;;;;;;;13.90;71.10;102621.81;5080767;28;19908;-86
2022/11/14 07:53:24;;;;;;;;;;;;;;;13.93;70.98;102618.53;5055885;28;19912;-85
2022/11/14 07:55:49;;;;;;;;;;;;;;;13.94;70.77;102618.59;5073181;28;19966;-85
2022/11/14 07:58:15;;;;;;;;;;;;;;;13.94;70.81;102615.06;5075328;28;19908;-86
2022/11/14 08:00:40;;;;;;;;;;;;;;;13.87;71.04;102626.88;5073156;28;20389;-85
2022/11/14 08:03:06;;;;;;;;;;;;;;;13.88;70.94;102618.16;5072769;28;20332;-86
2022/11/14 08:05:32;;;;;;;;;;;;;;;13.88;71.17;102622.53;5073294;28;19965;-85
2022/11/14 08:07:57;;;;;;;;;;;;;;;13.84;71.16;102619.69;5073801;28;19912;-87
2022/11/14 08:10:23;;;;;;;;;;;;;;;13.80;71.16;102620.28;5073301;28;19923;-85
2022/11/14 08:12:55;;;;;;;;;;;;;;;13.84;71.04;102622.31;5072479;28;20385;-85
2022/11/14 08:15:21;;;;;;;;;;;;;;;13.74;71.61;102624.19;5072191;28;19908;-86
2022/11/14 08:17:46;;;;;;;;;;;;;;;13.69;71.68;102615.97;5060824;28;19916;-87
2022/11/14 08:20:12;;;;;;;;;;;;;;;13.80;71.34;102616.72;5057774;28;20309;-86
2022/11/14 08:22:37;;;;;;;;;;;;;;;13.78;71.42;102614.00;5070986;28;20397;-85
2022/11/14 08:25:03;;;;;;;;;;;;;;;13.81;71.43;102621.19;5070794;28;20003;-84
2022/11/14 08:27:28;;;;;;;;;;;;;;;13.88;71.21;102619.88;5063069;28;20600;-85
2022/11/14 08:29:55;;;;;;;;;;;;;;;13.75;71.38;102613.75;5052453;28;20367;-90
2022/11/14 08:32:21;;;;;;;;;;;;;;;13.93;71.03;102622.03;5063499;28;19923;-84
2022/11/14 08:34:46;;;;;;;;;;;;;;;13.79;71.26;102620.16;5067657;28;20301;-85
2022/11/14 08:37:12;;;;;;;;;;;;;;;13.79;71.62;102626.31;5063069;28;20068;-85
2022/11/14 08:39:37;;;;;;;;;;;;;;;13.82;71.67;102617.72;5079716;28;20392;-86
2022/11/14 08:42:02;;;;;;;;;;;;;;;13.81;71.33;102615.94;5073462;28;20002;-85
2022/11/14 08:44:28;;;;;;;;;;;;;;;13.81;71.60;102623.81;5072964;28;19977;-85
2022/11/14 08:46:53;;;;;;;;;;;;;;;13.80;71.45;102614.09;5073377;28;19947;-85
2022/11/14 08:49:19;;;;;;;;;;;;;;;13.72;71.54;102616.19;5072348;28;19930;-85
2022/11/14 08:51:44;;;;;;;;;;;;;;;13.69;71.86;102615.06;5058027;28;20317;-85
2022/11/14 08:54:10;;;;;;;;;;;;;;;13.76;71.50;102606.81;5072931;28;19920;-85
2022/11/14 08:56:35;;;;;;;;;;;;;;;13.79;71.72;102609.66;5072897;28;19912;-85
2022/11/14 08:59:03;;;;;;;;;;;;;;;13.83;71.44;102604.72;5063228;28;20296;-85
2022/11/14 09:01:31;;;;;;;;;;;;;;;13.75;71.70;102599.75;5071695;28;19966;-85
2022/11/14 09:03:57;;;;;;;;;;;;;;;13.80;71.60;102591.38;5072630;28;19908;-85
2022/11/14 09:06:22;;;;;;;;;;;;;;;13.84;71.54;102592.50;5072436;28;19915;-84
2022/11/14 09:08:47;;;;;;;;;;;;;;;13.81;71.31;102589.66;5072542;28;19974;-85
2022/11/14 09:11:13;;;;;;;;;;;;;;;13.71;71.92;102589.81;5055032;28;20420;-85
2022/11/14 09:13:38;;;;;;;;;;;;;;;13.80;71.59;102593.06;5070976;28;20455;-85
2022/11/14 09:16:04;;;;;;;;;;;;;;;13.76;71.62;102584.09;5071387;28;19908;-84
2022/11/14 09:18:29;;;;;;;;;;;;;;;13.77;71.48;102580.66;5070560;28;19938;-85
2022/11/14 09:20:59;;;;;;;;;;;;;;;13.80;71.70;102583.50;5071253;28;20454;-85
2022/11/14 09:23:24;;;;;;;;;;;;;;;13.88;71.32;102580.50;5069351;28;19908;-85
2022/11/14 09:25:49;;;;;;;;;;;;;;;13.92;71.18;102572.94;5056292;28;19961;-85
2022/11/14 09:28:15;;;;;;;;;;;;;;;13.94;71.06;102563.44;5069850;28;20397;-85
2022/11/14 09:30:40;;;;;;;;;;;;;;;13.93;71.05;102560.72;5066831;28;19908;-85
2022/11/14 09:33:06;;;;;;;;;;;;;;;13.89;71.37;102559.59;5068385;28;20297;-85
2022/11/14 09:35:32;;;;;;;;;;;;;;;13.89;71.36;102562.22;5067194;28;19915;-85
2022/11/14 09:37:58;;;;;;;;;;;;;;;13.93;71.14;102552.84;5071007;28;19908;-86
2022/11/14 09:40:24;;;;;;;;;;;;;;;13.93;71.34;102550.22;5069295;28;19915;-84
2022/11/14 09:42:58;;;;;;;;;;;;;;;13.96;71.02;102547.78;5058100;28;19908;-84
2022/11/14 09:45:24;;;;;;;;;;;;;;;13.91;71.49;102547.50;5071486;28;19912;-85
2022/11/14 09:47:50;;;;;;;;;;;;;;;13.95;71.05;102545.94;5057919;28;19909;-85
2022/11/14 09:50:20;;;;;;;;;;;;;;;13.94;71.34;102547.69;5070635;28;19965;-84
2022/11/14 09:52:48;;;;;;;;;;;;;;;13.98;70.96;102539.22;5071739;28;19912;-84
2022/11/14 09:55:16;;;;;;;;;;;;;;;13.96;71.23;102538.19;5071901;28;19908;-86
2022/11/14 09:57:42;;;;;;;;;;;;;;;13.93;71.53;102535.38;5070913;28;19909;-86
2022/11/14 10:00:28;;;;;;;;;;;;;;;13.97;71.43;102532.16;5070583;28;19951;-86
2022/11/14 10:02:53;;;;;;;;;;;;;;;13.90;71.55;102519.38;5071397;28;19915;-85
2022/11/14 10:05:28;;;;;;;;;;;;;;;13.92;71.55;102519.50;5071903;28;19908;-86
2022/11/14 10:08:03;;;;;;;;;;;;;;;13.93;71.45;102518.72;5059130;28;20301;-86
2022/11/14 10:10:52;;;;;;;;;;;;;;;13.88;71.49;102517.47;5073528;28;19952;-86
2022/11/14 10:13:38;;;;;;;;;;;;;;;13.90;71.44;102519.38;5068330;28;20007;-86
2022/11/14 10:16:04;;;;;;;;;;;;;;;13.94;71.53;102508.28;5087158;28;19999;-86
2022/11/14 10:18:33;;;;;;;;;;;;;;;13.92;71.34;102509.00;5069848;28;19908;-87
2022/11/14 10:21:09;;;;;;;;;;;;;;;13.89;71.69;102496.56;5071576;28;19908;-86
2022/11/14 10:23:56;;;;;;;;;;;;;;;13.94;71.46;102496.88;5064550;28;19995;-88
2022/11/14 10:26:31;;;;;;;;;;;;;;;13.93;71.46;102505.56;5063697;28;19908;-88
2022/11/14 10:29:09;;;;;;;;;;;;;;;13.90;71.63;102497.47;5075410;28;20403;-88
2022/11/14 10:31:41;;;;;;;;;;;;;;;13.91;71.54;102501.94;5080397;28;19912;-87
2022/11/14 10:34:26;;;;;;;;;;;;;;;13.86;71.71;102493.72;5064697;28;20678;-87
2022/11/14 10:36:55;;;;;;;;;;;;;;;13.84;71.76;102492.69;5073834;28;19912;-87
2022/11/14 10:39:25;;;;;;;;;;;;;;;13.86;72.01;102493.72;5068225;28;20384;-88
2022/11/14 10:41:54;;;;;;;;;;;;;;;13.85;71.65;102492.81;5056762;28;20304;-87
2022/11/14 10:44:20;;;;;;;;;;;;;;;13.98;71.54;102491.03;5059203;28;20450;-89
2022/11/14 10:46:48;;;;;;;;;;;;;;;13.88;71.51;102489.47;5066158;28;19915;-89
2022/11/14 10:49:20;;;;;;;;;;;;;;;13.87;71.61;102490.28;5082268;28;19934;-89
2022/11/14 10:51:47;;;;;;;;;;;;;;;13.93;71.56;102485.47;5089091;28;19920;-88
2022/11/14 10:54:23;;;;;;;;;;;;;;;13.94;71.45;102481.13;5076084;28;20011;-88
2022/11/14 10:56:49;;;;;;;;;;;;;;;13.91;71.63;102475.66;5088416;28;19908;-87
2022/11/14 10:59:15;;;;;;;;;;;;;;;13.85;71.60;102476.16;5075548;28;19970;-88
2022/11/14 11:01:40;;;;;;;;;;;;;;;13.89;71.59;102472.94;5060151;28;19913;-87
2022/11/14 11:04:14;;;;;;;;;;;;;;;13.92;71.56;102469.59;5074228;28;20400;-88
2022/11/14 11:06:39;;;;;;;;;;;;;;;13.88;71.60;102472.81;5073631;28;19915;-87
2022/11/14 11:11:57;;;;;;;;;;;;;;;14.00;70.95;102473.66;5070227;28;20309;-89
2022/11/14 11:14:22;;;;;;;;;;;;;;;14.03;71.18;102474.78;5063969;28;19975;-89
2022/11/14 11:16:48;;;;;;;;;;;;;;;13.98;71.17;102465.66;5074542;28;19908;-89
2022/11/14 11:19:22;;;;;;;;;;;;;;;13.96;71.45;102469.91;5066632;28;19909;-89
2022/11/14 11:21:49;;;;;;;;;;;;;;;14.01;71.27;102457.06;5066170;28;20385;-89
2022/11/14 11:24:32;;;;;;;;;;;;;;;14.01;71.38;102460.63;5074137;28;19916;-90
2022/11/14 11:27:19;;;;;;;;;;;;;;;14.05;71.40;102457.41;5070118;28;20357;-90
2022/11/14 11:29:45;;;;;;;;;;;;;;;14.05;71.07;102456.47;5074114;28;20038;-90
2022/11/14 11:32:22;;;;;;;;;;;;;;;14.01;71.40;102451.81;5056592;28;19908;-90
2022/11/14 11:34:48;;;;;;;;;;;;;;;14.03;71.20;102451.13;5061679;28;19912;-89
2022/11/14 11:37:17;;;;;;;;;;;;;;;14.08;71.33;102453.16;5082259;28;20301;-90
2022/11/14 11:39:54;;;;;;;;;;;;;;;14.08;71.07;102446.19;5045891;28;20408;-90
2022/11/14 11:42:27;;;;;;;;;;;;;;;14.04;71.23;102446.78;5063011;28;19940;-91
2022/11/14 11:44:57;;;;;;;;;;;;;;;14.03;71.24;102445.88;5057495;28;19934;-91
2022/11/14 11:47:23;;;;;;;;;;;;;;;14.00;71.46;102447.38;5073908;28;19962;-91
2022/11/14 11:49:50;;;;;;;;;;;;;;;14.03;71.48;102448.50;5057280;28;19908;-91
2022/11/14 11:52:41;;;;;;;;;;;;;;;13.99;71.50;102450.78;5073760;28;20010;-91
2022/11/14 11:55:17;;;;;;;;;;;;;;;14.13;70.85;102439.50;5061192;28;19908;-89
2022/11/14 11:57:42;;;;;;;;;;;;;;;14.02;71.27;102437.88;5057095;28;19908;-92
2022/11/14 12:00:15;;;;;;;;;;;;;;;14.04;71.36;102437.19;5062339;28;19916;-88
2022/11/14 12:02:42;;;;;;;;;;;;;;;14.20;70.75;102438.19;5056591;28;19999;-88
2022/11/14 12:05:10;;;;;;;;;;;;;;;14.27;70.50;102434.28;5084157;28;19913;-87
2022/11/14 12:07:44;;;;;;;;;;;;;;;14.34;70.35;102436.47;5056675;28;19912;-90
2022/11/14 12:10:13;;;;;;;;;;;;;;;14.26;70.45;102443.84;5084439;28;20008;-87
2022/11/14 12:12:48;;;;;;;;;;;;;;;14.28;70.39;102436.06;5056412;28;19916;-90
2022/11/14 12:15:33;;;;;;;;;;;;;;;14.30;70.59;102434.47;5068947;28;20370;-89
2022/11/14 12:18:15;;;;;;;;;;;;;;;14.29;70.40;102437.88;5087093;28;19912;-90
2022/11/14 12:20:46;;;;;;;;;;;;;;;14.30;70.53;102431.84;5056310;28;19912;-91
2022/11/14 12:23:35;;;;;;;;;;;;;;;14.22;70.68;102437.50;5057108;28;19943;-90
2022/11/14 12:26:14;;;;;;;;;;;;;;;14.30;70.62;102434.47;5062706;28;20305;-89
2022/11/14 12:28:58;;;;;;;;;;;;;;;14.30;70.32;102435.34;5065416;28;19912;-90
2022/11/14 12:31:27;;;;;;;;;;;;;;;14.33;70.29;102432.94;5061786;28;19908;-90
2022/11/14 12:34:11;;;;;;;;;;;;;;;14.31;70.40;102433.63;5055918;28;19921;-88
2022/11/14 12:36:37;;;;;;;;;;;;;;;14.24;70.49;102425.38;5071487;28;20305;-88
2022/11/14 12:39:03;;;;;;;;;;;;;;;14.21;70.67;102433.03;5069896;28;19908;-89